Terminal Aerodrome Forecast
Issued by NWS

Home | Current Version | Previous Version | Text Only | Print | Product List | Glossary On
Versions: 1 2 3 4 5 6 7 8 9 10 11 12 13 14 15 16 17 18 19 20 21 22 23
000
FTUS44 KLIX 242334
TAFGPT
TAF
KGPT 242334Z 2500/2524 18007KT P6SM SCT080
     FM250400 22008KT 5SM BR BKN035
     FM250600 24008KT 3SM BR BKN015
     FM250800 29007KT 5SM BR BKN015
     FM250900 31008KT P6SM BKN020 PROB30 2509/2510 4SM -SHRA OVC007
     FM251000 32010G18KT P6SM BKN060 PROB30 2510/2512 4SM -SHRA
      OVC040
     FM252300 34008KT P6SM SKC=

USA.gov is the U.S. government's official web portal to all federal, state and local government web resources and services.